createdAt,value
2017-11-15T00:00:35.603Z,1014.66
2017-11-15T00:01:35.515Z,1014.67
2017-11-15T00:02:35.431Z,1014.66
2017-11-15T00:03:35.388Z,1014.69
2017-11-15T00:04:35.265Z,1014.71
2017-11-15T00:05:35.164Z,1014.73
2017-11-15T00:06:35.088Z,1014.71
2017-11-15T00:07:34.996Z,1014.73
2017-11-15T00:08:34.904Z,1014.71
2017-11-15T00:09:34.822Z,1014.74
2017-11-15T00:10:34.731Z,1014.76
2017-11-15T00:11:34.638Z,1014.77
2017-11-15T00:12:34.553Z,1014.78
2017-11-15T00:13:34.468Z,1014.74
2017-11-15T00:14:34.373Z,1014.71
2017-11-15T00:15:34.287Z,1014.71
2017-11-15T00:16:34.197Z,1014.67
2017-11-15T00:17:34.124Z,1014.67
2017-11-15T00:18:34.029Z,1014.64
2017-11-15T00:19:33.934Z,1014.63
2017-11-15T00:20:33.859Z,1014.59
2017-11-15T00:21:33.763Z,1014.58
2017-11-15T00:22:33.677Z,1014.57
2017-11-15T00:23:33.591Z,1014.53
2017-11-15T00:24:33.496Z,1014.59
2017-11-15T00:25:33.412Z,1014.56
2017-11-15T00:26:33.320Z,1014.57
2017-11-15T00:27:33.231Z,1014.54
2017-11-15T00:28:33.144Z,1014.55
2017-11-15T00:29:33.055Z,1014.59
2017-11-15T00:30:32.979Z,1014.56
2017-11-15T00:31:32.889Z,1014.56
2017-11-15T00:32:32.792Z,1014.57
2017-11-15T00:33:32.703Z,1014.59
2017-11-15T00:34:32.624Z,1014.55
2017-11-15T00:35:32.528Z,1014.57
2017-11-15T00:36:32.438Z,1014.54
2017-11-15T00:37:32.357Z,1014.49
2017-11-15T00:38:32.257Z,1014.50
2017-11-15T00:39:32.175Z,1014.49
2017-11-15T00:40:32.086Z,1014.49
2017-11-15T00:41:31.999Z,1014.47
2017-11-15T00:42:31.916Z,1014.41
2017-11-15T00:43:31.824Z,1014.44
2017-11-15T00:44:31.736Z,1014.41
2017-11-15T00:45:31.650Z,1014.39
2017-11-15T00:46:31.564Z,1014.37
2017-11-15T00:47:31.483Z,1014.34
2017-11-15T00:48:31.385Z,1014.31
2017-11-15T00:49:31.292Z,1014.34
2017-11-15T00:50:31.205Z,1014.34
2017-11-15T00:51:31.117Z,1014.34
2017-11-15T00:52:31.029Z,1014.32
2017-11-15T00:53:30.945Z,1014.24
2017-11-15T00:54:30.857Z,1014.28
2017-11-15T00:55:30.817Z,1014.24
2017-11-15T00:56:30.680Z,1014.22
2017-11-15T00:57:30.595Z,1014.19
2017-11-15T00:58:30.503Z,1014.21
2017-11-15T00:59:30.425Z,1014.19
2017-11-15T01:00:30.339Z,1014.18
2017-11-15T01:01:30.250Z,1014.19
2017-11-15T01:02:30.161Z,1014.18
2017-11-15T01:03:30.069Z,1014.22
2017-11-15T01:04:29.976Z,1014.18
2017-11-15T01:05:29.881Z,1014.17
2017-11-15T01:06:29.797Z,1014.21
2017-11-15T01:07:29.706Z,1014.18
2017-11-15T01:08:29.622Z,1014.25
2017-11-15T01:09:29.554Z,1014.23
2017-11-15T01:10:29.443Z,1014.24
2017-11-15T01:11:29.356Z,1014.25
2017-11-15T01:12:29.269Z,1014.25
2017-11-15T01:13:29.201Z,1014.27
2017-11-15T01:14:29.101Z,1014.27
2017-11-15T01:15:29.013Z,1014.31
2017-11-15T01:16:28.930Z,1014.29
2017-11-15T01:17:28.833Z,1014.27
2017-11-15T01:18:28.734Z,1014.29
2017-11-15T01:19:28.648Z,1014.31
2017-11-15T01:20:28.562Z,1014.31
2017-11-15T01:21:28.471Z,1014.32
2017-11-15T01:22:28.383Z,1014.39
2017-11-15T01:23:28.292Z,1014.38
2017-11-15T01:24:28.213Z,1014.41
2017-11-15T01:25:28.131Z,1014.36
2017-11-15T01:26:28.033Z,1014.41
2017-11-15T01:27:27.936Z,1014.36
2017-11-15T01:28:27.859Z,1014.36
2017-11-15T01:29:27.770Z,1014.37
2017-11-15T01:30:27.680Z,1014.37
2017-11-15T01:31:27.602Z,1014.37
2017-11-15T01:32:27.498Z,1014.38
2017-11-15T01:33:27.413Z,1014.41
2017-11-15T01:34:27.325Z,1014.35
2017-11-15T01:35:27.233Z,1014.41
2017-11-15T01:36:27.152Z,1014.38
2017-11-15T01:37:27.063Z,1014.38
2017-11-15T01:38:26.983Z,1014.37
2017-11-15T01:39:26.881Z,1014.33
2017-11-15T01:40:26.792Z,1014.36
2017-11-15T01:41:26.711Z,1014.34
2017-11-15T01:42:26.625Z,1014.35
2017-11-15T01:43:26.529Z,1014.30
2017-11-15T01:44:26.450Z,1014.25
2017-11-15T01:45:26.358Z,1014.26
2017-11-15T01:46:26.261Z,1014.24
2017-11-15T01:47:26.171Z,1014.25
2017-11-15T01:48:26.085Z,1014.28
2017-11-15T01:49:26.037Z,1014.27
2017-11-15T01:50:25.912Z,1014.31
2017-11-15T01:51:25.819Z,1014.28
2017-11-15T01:52:25.739Z,1014.35
2017-11-15T01:53:25.650Z,1014.28
2017-11-15T01:54:25.558Z,1014.33
2017-11-15T01:55:25.477Z,1014.29
2017-11-15T01:56:25.377Z,1014.32
2017-11-15T01:57:25.290Z,1014.30
2017-11-15T01:58:25.198Z,1014.27
2017-11-15T01:59:25.133Z,1014.23
2017-11-15T02:00:25.028Z,1014.25
2017-11-15T02:01:24.938Z,1014.26
2017-11-15T02:02:24.850Z,1014.24
2017-11-15T02:03:24.761Z,1014.19
2017-11-15T02:04:24.679Z,1014.23
2017-11-15T02:05:24.612Z,1014.15
2017-11-15T02:06:24.503Z,1014.18
2017-11-15T02:07:24.414Z,1014.18
2017-11-15T02:08:24.318Z,1014.19
2017-11-15T02:09:24.235Z,1014.15
2017-11-15T02:10:24.142Z,1014.15
2017-11-15T02:11:24.055Z,1014.21
2017-11-15T02:12:23.973Z,1014.22
2017-11-15T02:13:23.881Z,1014.27
2017-11-15T02:14:23.785Z,1014.25
2017-11-15T02:15:23.698Z,1014.25
2017-11-15T02:16:23.611Z,1014.25
2017-11-15T02:17:23.520Z,1014.25
2017-11-15T02:18:23.439Z,1014.28
2017-11-15T02:19:23.366Z,1014.29
2017-11-15T02:20:23.268Z,1014.32
2017-11-15T02:21:23.167Z,1014.28
2017-11-15T02:22:23.075Z,1014.28
2017-11-15T02:23:22.995Z,1014.27
2017-11-15T02:24:22.902Z,1014.25
2017-11-15T02:25:22.810Z,1014.30
2017-11-15T02:26:22.726Z,1014.29
2017-11-15T02:27:22.634Z,1014.35
2017-11-15T02:28:22.555Z,1014.36
2017-11-15T02:29:22.459Z,1014.34
2017-11-15T02:30:22.368Z,1014.28
2017-11-15T02:31:22.276Z,1014.30
2017-11-15T02:32:22.193Z,1014.30
2017-11-15T02:33:22.100Z,1014.33
2017-11-15T02:34:22.015Z,1014.30
2017-11-15T02:35:21.928Z,1014.33
2017-11-15T02:36:21.843Z,1014.32
2017-11-15T02:37:21.750Z,1014.32
2017-11-15T02:38:21.658Z,1014.29
2017-11-15T02:39:21.570Z,1014.27
2017-11-15T02:40:21.485Z,1014.27
2017-11-15T02:41:21.418Z,1014.24
2017-11-15T02:42:21.301Z,1014.23
2017-11-15T02:43:21.218Z,1014.24
2017-11-15T02:44:21.146Z,1014.23
2017-11-15T02:45:21.045Z,1014.17
2017-11-15T02:46:20.966Z,1014.15
2017-11-15T02:47:20.955Z,1014.15
2017-11-15T02:48:20.781Z,1014.16
2017-11-15T02:49:20.683Z,1014.13
2017-11-15T02:50:20.590Z,1014.15
2017-11-15T02:51:20.504Z,1014.15
2017-11-15T02:52:20.442Z,1014.13
2017-11-15T02:53:20.326Z,1014.15
2017-11-15T02:54:20.240Z,1014.16
2017-11-15T02:55:20.150Z,1014.19
2017-11-15T02:56:20.064Z,1014.19
2017-11-15T02:57:19.980Z,1014.16
2017-11-15T02:58:19.886Z,1014.19
2017-11-15T02:59:19.794Z,1014.19
2017-11-15T03:00:19.718Z,1014.18
2017-11-15T03:01:19.649Z,1014.21
2017-11-15T03:02:19.534Z,1014.23
2017-11-15T03:03:19.458Z,1014.20
2017-11-15T03:04:19.352Z,1014.25
2017-11-15T03:05:19.264Z,1014.19
2017-11-15T03:06:19.185Z,1014.15
2017-11-15T03:07:19.083Z,1014.21
2017-11-15T03:08:18.998Z,1014.18
2017-11-15T03:09:18.908Z,1014.16
2017-11-15T03:10:18.820Z,1014.19
2017-11-15T03:11:18.734Z,1014.20
2017-11-15T03:12:18.639Z,1014.17
2017-11-15T03:13:18.555Z,1014.12
2017-11-15T03:14:18.484Z,1014.15
2017-11-15T03:15:18.377Z,1014.16
2017-11-15T03:16:18.300Z,1014.15
2017-11-15T03:17:18.223Z,1014.16
2017-11-15T03:18:18.108Z,1014.18
2017-11-15T03:19:18.026Z,1014.20
2017-11-15T03:20:17.933Z,1014.16
2017-11-15T03:21:17.837Z,1014.22
2017-11-15T03:22:17.801Z,1014.20
2017-11-15T03:23:17.666Z,1014.26
2017-11-15T03:24:17.579Z,1014.28
2017-11-15T03:25:17.493Z,1014.28
2017-11-15T03:26:17.395Z,1014.27
2017-11-15T03:27:17.305Z,1014.27
2017-11-15T03:28:17.223Z,1014.20
2017-11-15T03:29:17.130Z,1014.22
2017-11-15T03:30:17.053Z,1014.18
2017-11-15T03:31:16.954Z,1014.21
2017-11-15T03:32:16.867Z,1014.23
2017-11-15T03:33:16.784Z,1014.21
2017-11-15T03:34:16.686Z,1014.20
2017-11-15T03:35:16.604Z,1014.22
2017-11-15T03:36:16.506Z,1014.22
2017-11-15T03:37:16.418Z,1014.21
2017-11-15T03:38:16.343Z,1014.20
2017-11-15T03:39:16.247Z,1014.18
2017-11-15T03:40:16.184Z,1014.22
2017-11-15T03:41:16.114Z,1014.13
2017-11-15T03:42:15.972Z,1014.13
2017-11-15T03:43:15.895Z,1014.08
2017-11-15T03:44:15.794Z,1014.13
2017-11-15T03:45:15.712Z,1014.10
2017-11-15T03:46:15.627Z,1014.09
2017-11-15T03:47:15.529Z,1014.08
2017-11-15T03:48:15.438Z,1014.09
2017-11-15T03:49:15.387Z,1014.06
2017-11-15T03:50:15.280Z,1014.04
2017-11-15T03:51:15.188Z,1014.02
2017-11-15T03:52:15.090Z,1014.06
2017-11-15T03:53:14.995Z,1013.99
2017-11-15T03:54:14.908Z,1014.03
2017-11-15T03:55:14.815Z,1013.99
2017-11-15T03:56:14.728Z,1013.96
2017-11-15T03:57:14.633Z,1013.94
2017-11-15T03:58:14.554Z,1013.93
2017-11-15T03:59:14.464Z,1013.90
2017-11-15T04:00:14.377Z,1013.88
2017-11-15T04:01:14.294Z,1013.86
2017-11-15T04:02:14.195Z,1013.88
2017-11-15T04:03:14.106Z,1013.84
2017-11-15T04:04:14.044Z,1013.87
2017-11-15T04:05:13.933Z,1013.90
2017-11-15T04:06:13.836Z,1013.92
2017-11-15T04:07:13.746Z,1013.92
2017-11-15T04:08:13.670Z,1013.90
2017-11-15T04:09:13.571Z,1013.94
2017-11-15T04:10:13.488Z,1013.93
2017-11-15T04:11:13.390Z,1013.96
2017-11-15T04:12:13.365Z,1014.02
2017-11-15T04:13:13.215Z,1014.02
2017-11-15T04:14:13.123Z,1014.00
2017-11-15T04:15:13.063Z,1013.99
2017-11-15T04:16:12.953Z,1013.98
2017-11-15T04:17:12.866Z,1014.07
2017-11-15T04:18:12.776Z,1013.98
2017-11-15T04:19:12.684Z,1013.99
2017-11-15T04:20:12.599Z,1013.98
2017-11-15T04:21:12.511Z,1014.00
2017-11-15T04:22:12.411Z,1014.04
2017-11-15T04:23:12.325Z,1013.99
2017-11-15T04:24:12.246Z,1013.98
2017-11-15T04:25:12.144Z,1014.00
2017-11-15T04:26:12.055Z,1013.96
2017-11-15T04:27:11.968Z,1013.95
2017-11-15T04:28:11.878Z,1013.98
2017-11-15T04:29:11.795Z,1013.92
2017-11-15T04:30:11.719Z,1013.97
2017-11-15T04:31:11.617Z,1013.95
2017-11-15T04:32:11.523Z,1013.91
2017-11-15T04:33:11.444Z,1013.93
2017-11-15T04:34:11.349Z,1013.89
2017-11-15T04:35:11.259Z,1013.90
2017-11-15T04:36:11.166Z,1013.93
2017-11-15T04:37:11.076Z,1013.89
2017-11-15T04:38:10.989Z,1013.89
2017-11-15T04:39:10.900Z,1013.87
2017-11-15T04:40:10.831Z,1013.88
2017-11-15T04:41:10.723Z,1013.84
2017-11-15T04:42:10.640Z,1013.84
2017-11-15T04:43:10.545Z,1013.85
2017-11-15T04:44:10.456Z,1013.88
2017-11-15T04:45:10.366Z,1013.88
2017-11-15T04:46:10.283Z,1013.95
2017-11-15T04:47:10.186Z,1013.89
2017-11-15T04:48:10.101Z,1013.88
2017-11-15T04:49:10.011Z,1013.86
2017-11-15T04:50:09.917Z,1013.88
2017-11-15T04:51:09.856Z,1013.86
2017-11-15T04:52:09.746Z,1013.88
2017-11-15T04:53:09.720Z,1013.83
2017-11-15T04:54:09.567Z,1013.83
2017-11-15T04:55:09.472Z,1013.83
2017-11-15T04:56:09.390Z,1013.86
2017-11-15T04:57:09.295Z,1013.85
2017-11-15T04:58:09.204Z,1013.85
2017-11-15T04:59:09.113Z,1013.85
2017-11-15T05:00:09.025Z,1013.86
2017-11-15T05:01:08.942Z,1013.90
2017-11-15T05:02:08.854Z,1013.88
2017-11-15T05:03:08.781Z,1013.91
2017-11-15T05:04:08.673Z,1013.90
2017-11-15T05:05:08.584Z,1013.92
2017-11-15T05:06:08.490Z,1013.90
2017-11-15T05:07:08.410Z,1013.92
2017-11-15T05:08:08.336Z,1013.89
2017-11-15T05:09:08.222Z,1013.93
2017-11-15T05:10:08.134Z,1013.89
2017-11-15T05:11:08.046Z,1013.87
2017-11-15T05:12:07.956Z,1013.89
2017-11-15T05:13:07.866Z,1013.90
2017-11-15T05:14:07.777Z,1013.90
2017-11-15T05:15:07.708Z,1013.94
2017-11-15T05:16:07.609Z,1013.95
2017-11-15T05:17:07.511Z,1013.95
2017-11-15T05:18:07.436Z,1013.94
2017-11-15T05:19:07.348Z,1013.99
2017-11-15T05:20:07.264Z,1013.98
2017-11-15T05:21:07.155Z,1013.96
2017-11-15T05:22:07.063Z,1013.99
2017-11-15T05:23:06.968Z,1013.99
2017-11-15T05:24:06.883Z,1014.02
2017-11-15T05:25:06.793Z,1013.99
2017-11-15T05:26:06.706Z,1014.00
2017-11-15T05:27:06.616Z,1013.99
2017-11-15T05:28:06.524Z,1014.03
2017-11-15T05:29:06.441Z,1014.05
2017-11-15T05:30:06.344Z,1014.03
2017-11-15T05:31:06.260Z,1014.09
2017-11-15T05:32:06.189Z,1014.04
2017-11-15T05:33:06.089Z,1014.04
2017-11-15T05:34:06.011Z,1014.02
2017-11-15T05:35:05.903Z,1014.03
2017-11-15T05:36:05.823Z,1014.02
2017-11-15T05:37:05.741Z,1013.99
2017-11-15T05:38:05.634Z,1014.05
2017-11-15T05:39:05.562Z,1014.01
2017-11-15T05:40:05.451Z,1014.01
2017-11-15T05:41:05.361Z,1014.06
2017-11-15T05:42:05.305Z,1014.09
2017-11-15T05:43:05.189Z,1014.05
2017-11-15T05:44:05.098Z,1014.07
2017-11-15T05:45:05.005Z,1014.09
2017-11-15T05:46:04.936Z,1014.11
2017-11-15T05:47:04.830Z,1014.10
2017-11-15T05:48:04.742Z,1014.12
2017-11-15T05:49:04.650Z,1014.13
2017-11-15T05:50:04.570Z,1014.14
2017-11-15T05:51:04.478Z,1014.12
2017-11-15T05:52:04.387Z,1014.12
2017-11-15T05:53:04.303Z,1014.15
2017-11-15T05:54:04.209Z,1014.08
2017-11-15T05:55:04.113Z,1014.14
2017-11-15T05:56:04.035Z,1014.12
2017-11-15T05:57:03.937Z,1014.12
2017-11-15T05:58:03.845Z,1014.13
2017-11-15T05:59:03.768Z,1014.11
2017-11-15T06:00:03.666Z,1014.09
2017-11-15T06:01:03.575Z,1014.12
2017-11-15T06:02:03.494Z,1014.08
2017-11-15T06:03:03.446Z,1014.13
2017-11-15T06:04:03.315Z,1014.15
2017-11-15T06:05:03.226Z,1014.14
2017-11-15T06:06:03.134Z,1014.14
2017-11-15T06:07:03.045Z,1014.16
2017-11-15T06:08:02.953Z,1014.16
2017-11-15T06:09:02.861Z,1014.19
2017-11-15T06:10:02.879Z,1014.20
2017-11-15T06:11:02.790Z,1014.24
2017-11-15T06:12:02.684Z,1014.22
2017-11-15T06:13:02.565Z,1014.25
2017-11-15T06:14:02.449Z,1014.25
2017-11-15T06:15:02.415Z,1014.28
2017-11-15T06:16:02.276Z,1014.29
2017-11-15T06:17:02.185Z,1014.28
2017-11-15T06:18:02.124Z,1014.27
2017-11-15T06:19:02.042Z,1014.31
2017-11-15T06:20:01.938Z,1014.32
2017-11-15T06:21:01.886Z,1014.33
2017-11-15T06:22:01.721Z,1014.35
2017-11-15T06:23:01.612Z,1014.38
2017-11-15T06:24:01.618Z,1014.35
2017-11-15T06:25:01.463Z,1014.35
2017-11-15T06:26:01.444Z,1014.37
2017-11-15T06:27:01.255Z,1014.38
2017-11-15T06:28:01.191Z,1014.38
2017-11-15T06:29:01.152Z,1014.42
2017-11-15T06:30:00.996Z,1014.41
2017-11-15T06:31:00.913Z,1014.39
2017-11-15T06:32:00.918Z,1014.44
2017-11-15T06:33:00.903Z,1014.42
2017-11-15T06:34:00.648Z,1014.41
2017-11-15T06:35:00.551Z,1014.44
2017-11-15T06:36:00.630Z,1014.40
2017-11-15T06:37:00.508Z,1014.44
2017-11-15T06:38:00.265Z,1014.48
2017-11-15T06:39:00.176Z,1014.49
2017-11-15T06:40:00.091Z,1014.53
2017-11-15T06:40:59.995Z,1014.54
2017-11-15T06:41:59.913Z,1014.56
2017-11-15T06:42:59.815Z,1014.61
2017-11-15T06:43:59.741Z,1014.58
2017-11-15T06:44:59.649Z,1014.64
2017-11-15T06:45:59.553Z,1014.64
2017-11-15T06:46:59.461Z,1014.64
2017-11-15T06:47:59.376Z,1014.68
2017-11-15T06:48:59.283Z,1014.68
2017-11-15T06:49:59.201Z,1014.76
2017-11-15T06:50:59.101Z,1014.74
2017-11-15T06:51:59.041Z,1014.76
2017-11-15T06:52:58.930Z,1014.74
2017-11-15T06:53:58.840Z,1014.76
2017-11-15T06:54:58.746Z,1014.74
2017-11-15T06:55:58.660Z,1014.69
2017-11-15T06:56:58.561Z,1014.75
2017-11-15T06:57:58.484Z,1014.73
2017-11-15T06:58:58.398Z,1014.73
2017-11-15T06:59:58.301Z,1014.74
2017-11-15T07:00:58.207Z,1014.73
2017-11-15T07:01:58.125Z,1014.72
2017-11-15T07:02:58.027Z,1014.77
2017-11-15T07:03:57.934Z,1014.77
2017-11-15T07:04:57.843Z,1014.73
2017-11-15T07:05:57.793Z,1014.76
2017-11-15T07:06:57.669Z,1014.78
2017-11-15T07:07:57.580Z,1014.81
2017-11-15T07:08:57.488Z,1014.74
2017-11-15T07:09:57.399Z,1014.78
2017-11-15T07:10:57.320Z,1014.77
2017-11-15T07:11:57.216Z,1014.79
2017-11-15T07:12:57.130Z,1014.80
2017-11-15T07:13:57.047Z,1014.82
2017-11-15T07:14:56.956Z,1014.83
2017-11-15T07:15:56.865Z,1014.87
2017-11-15T07:16:56.780Z,1014.90
2017-11-15T07:17:56.684Z,1014.84
2017-11-15T07:18:56.599Z,1014.86
2017-11-15T07:19:56.526Z,1014.88
2017-11-15T07:20:56.423Z,1014.91
2017-11-15T07:21:56.343Z,1014.95
2017-11-15T07:22:56.249Z,1014.93
2017-11-15T07:23:56.164Z,1014.98
2017-11-15T07:24:56.086Z,1015.05
2017-11-15T07:25:55.992Z,1015.19
2017-11-15T07:26:55.909Z,1015.22
2017-11-15T07:27:55.810Z,1015.29
2017-11-15T07:28:55.747Z,1015.34
2017-11-15T07:29:55.708Z,1015.53
2017-11-15T07:30:55.541Z,1015.61
2017-11-15T07:31:56.175Z,1015.69
2017-11-15T07:32:55.361Z,1015.76
2017-11-15T07:33:55.277Z,1015.79
2017-11-15T07:34:55.203Z,1015.79
2017-11-15T07:35:55.107Z,1015.87
2017-11-15T07:36:55.019Z,1015.89
2017-11-15T07:37:54.939Z,1015.90
2017-11-15T07:38:54.862Z,1015.88
2017-11-15T07:39:54.807Z,1015.90
2017-11-15T07:40:54.688Z,1015.90
2017-11-15T07:41:54.601Z,1015.96
2017-11-15T07:42:54.520Z,1015.97
2017-11-15T07:43:54.434Z,1015.95
2017-11-15T07:44:54.361Z,1015.95
2017-11-15T07:45:54.268Z,1016.01
2017-11-15T07:46:54.178Z,1015.91
2017-11-15T07:47:54.099Z,1015.96
2017-11-15T07:48:54.017Z,1016.05
2017-11-15T07:49:53.942Z,1016.07
2017-11-15T07:50:53.855Z,1016.06
2017-11-15T07:51:53.763Z,1016.08
2017-11-15T07:52:53.681Z,1016.12
2017-11-15T07:53:53.601Z,1016.13
2017-11-15T07:54:53.517Z,1016.14
2017-11-15T07:55:53.435Z,1016.16
2017-11-15T07:56:53.371Z,1016.13
2017-11-15T07:57:53.276Z,1016.14
2017-11-15T07:58:53.192Z,1016.15
2017-11-15T07:59:53.112Z,1016.17
2017-11-15T08:00:53.028Z,1016.17
2017-11-15T08:01:52.959Z,1016.15
2017-11-15T08:02:52.868Z,1016.19
2017-11-15T08:03:52.784Z,1016.17
2017-11-15T08:04:52.714Z,1016.16
2017-11-15T08:05:52.627Z,1016.17
2017-11-15T08:06:52.543Z,1016.14
2017-11-15T08:07:52.470Z,1016.18
2017-11-15T08:08:52.386Z,1016.11
2017-11-15T08:09:52.296Z,1016.11
2017-11-15T08:10:52.217Z,1016.13
2017-11-15T08:11:52.139Z,1016.13
2017-11-15T08:12:52.079Z,1016.14
2017-11-15T08:13:51.974Z,1016.19
2017-11-15T08:14:51.898Z,1016.15
2017-11-15T08:15:51.829Z,1015.89
2017-11-15T08:16:51.743Z,1016.16
2017-11-15T08:17:51.664Z,1015.85
2017-11-15T08:18:51.584Z,1016.09
2017-11-15T08:19:51.532Z,1016.10
2017-11-15T08:20:51.422Z,1016.13
2017-11-15T08:21:51.343Z,1016.07
2017-11-15T08:22:51.279Z,1016.05
2017-11-15T08:23:51.176Z,1016.06
2017-11-15T08:24:51.097Z,1016.12
2017-11-15T08:25:51.020Z,1015.90
2017-11-15T08:26:50.938Z,1016.10
2017-11-15T08:27:50.860Z,1016.12
2017-11-15T08:28:50.787Z,1016.15
2017-11-15T08:29:50.701Z,1016.21
2017-11-15T08:30:50.621Z,1016.17
2017-11-15T08:31:50.550Z,1016.23
2017-11-15T08:32:50.466Z,1016.23
2017-11-15T08:33:50.388Z,1016.27
2017-11-15T08:34:50.309Z,1016.27
2017-11-15T08:35:50.225Z,1016.24
2017-11-15T08:36:50.160Z,1016.23
2017-11-15T08:37:50.077Z,1016.23
2017-11-15T08:38:49.996Z,1016.19
2017-11-15T08:39:49.914Z,1016.18
2017-11-15T08:40:49.846Z,1016.18
2017-11-15T08:41:49.765Z,1016.12
2017-11-15T08:42:49.688Z,1016.13
2017-11-15T08:43:49.608Z,1016.16
2017-11-15T08:44:49.528Z,1016.21
2017-11-15T08:45:49.447Z,1016.24
2017-11-15T08:46:49.367Z,1016.22
2017-11-15T08:47:49.293Z,1016.25
2017-11-15T08:48:49.211Z,1016.32
2017-11-15T08:49:49.133Z,1016.37
2017-11-15T08:50:49.058Z,1016.39
2017-11-15T08:51:48.980Z,1016.36
2017-11-15T08:52:48.901Z,1016.40
2017-11-15T08:53:48.824Z,1016.45
2017-11-15T08:54:48.757Z,1016.42
2017-11-15T08:55:48.676Z,1016.45
2017-11-15T08:56:48.594Z,1016.44
2017-11-15T08:57:48.520Z,1016.42
2017-11-15T08:58:48.445Z,1016.43
2017-11-15T08:59:48.365Z,1016.38
2017-11-15T09:00:48.287Z,1016.50
2017-11-15T09:01:48.231Z,1016.42
2017-11-15T09:02:48.133Z,1016.45
2017-11-15T09:03:48.055Z,1016.42
2017-11-15T09:04:47.983Z,1016.45
2017-11-15T09:05:47.899Z,1016.45
2017-11-15T09:06:47.830Z,1016.48
2017-11-15T09:07:47.751Z,1016.48
2017-11-15T09:08:47.676Z,1016.52
2017-11-15T09:09:47.595Z,1016.50
2017-11-15T09:10:47.523Z,1016.52
2017-11-15T09:11:47.442Z,1016.49
2017-11-15T09:12:47.369Z,1016.47
2017-11-15T09:13:47.349Z,1016.51
2017-11-15T09:14:47.215Z,1016.51
2017-11-15T09:15:47.146Z,1016.48
2017-11-15T09:16:47.075Z,1016.58
2017-11-15T09:17:46.993Z,1016.58
2017-11-15T09:18:46.916Z,1016.59
2017-11-15T09:19:46.841Z,1016.57
2017-11-15T09:20:46.763Z,1016.60
2017-11-15T09:21:46.693Z,1016.65
2017-11-15T09:22:46.617Z,1016.65
2017-11-15T09:23:46.543Z,1016.63
2017-11-15T09:24:46.467Z,1016.68
2017-11-15T09:25:46.390Z,1016.68
2017-11-15T09:26:46.317Z,1016.68
2017-11-15T09:27:46.238Z,1016.72
2017-11-15T09:28:46.169Z,1016.73
2017-11-15T09:29:46.087Z,1016.73
2017-11-15T09:30:46.010Z,1016.74
2017-11-15T09:31:45.939Z,1016.76
2017-11-15T09:32:45.862Z,1016.69
2017-11-15T09:33:45.791Z,1016.74
2017-11-15T09:34:45.712Z,1016.78
2017-11-15T09:35:45.647Z,1016.80
2017-11-15T09:36:45.563Z,1016.78
2017-11-15T09:37:45.495Z,1016.78
2017-11-15T09:38:45.416Z,1016.81
2017-11-15T09:39:45.343Z,1016.85
2017-11-15T09:40:45.278Z,1016.87
2017-11-15T09:41:45.191Z,1016.95
2017-11-15T09:42:45.119Z,1017.01
2017-11-15T09:43:45.045Z,1017.07
2017-11-15T09:44:44.987Z,1017.15
2017-11-15T09:45:44.901Z,1017.26
2017-11-15T09:46:44.827Z,1017.32
2017-11-15T09:47:44.765Z,1017.40
2017-11-15T09:48:44.679Z,1017.48
2017-11-15T09:49:44.600Z,1017.56
2017-11-15T09:50:44.523Z,1017.66
2017-11-15T09:51:44.449Z,1017.80
2017-11-15T09:52:44.383Z,1017.96
2017-11-15T09:53:44.305Z,1018.08
2017-11-15T09:54:44.230Z,1018.29
2017-11-15T09:55:44.158Z,1018.47
2017-11-15T09:56:44.099Z,1018.71
2017-11-15T09:57:44.007Z,1018.99
2017-11-15T09:58:43.949Z,1019.31
2017-11-15T09:59:43.871Z,1019.55
2017-11-15T10:00:43.789Z,1019.76
2017-11-15T10:01:43.725Z,1020.02
2017-11-15T10:02:43.642Z,1020.24
2017-11-15T10:03:43.567Z,1020.34
2017-11-15T10:04:43.499Z,1020.58
2017-11-15T10:05:43.420Z,1020.81
2017-11-15T10:06:43.350Z,1021.09
2017-11-15T10:07:43.276Z,1021.28
2017-11-15T10:08:43.203Z,1021.48
2017-11-15T10:09:43.132Z,1021.67
2017-11-15T10:10:43.066Z,1021.93
2017-11-15T10:11:42.980Z,1022.05
2017-11-15T10:12:42.914Z,1022.27
2017-11-15T10:13:42.846Z,1022.43
2017-11-15T10:14:42.763Z,1022.55
2017-11-15T10:15:42.694Z,1022.80
2017-11-15T10:16:42.622Z,1023.03
2017-11-15T10:17:42.578Z,1023.33
2017-11-15T10:18:42.473Z,1023.54
2017-11-15T10:19:42.403Z,1023.74
2017-11-15T10:20:42.332Z,1023.98
2017-11-15T10:21:42.261Z,1024.06
2017-11-15T10:22:42.213Z,1024.15
2017-11-15T10:23:42.126Z,1024.07
2017-11-15T10:24:42.041Z,1024.05
2017-11-15T10:25:41.974Z,1023.95
2017-11-15T10:26:41.897Z,1023.85
2017-11-15T10:27:41.824Z,1023.79
2017-11-15T10:28:41.754Z,1023.79
2017-11-15T10:29:41.685Z,1023.65
2017-11-15T10:30:41.612Z,1023.61
2017-11-15T10:31:41.537Z,1023.53
2017-11-15T10:32:41.464Z,1023.31
2017-11-15T10:33:41.392Z,1023.20
2017-11-15T10:34:41.325Z,1023.00
2017-11-15T10:35:41.261Z,1022.81
2017-11-15T10:36:41.192Z,1022.57
2017-11-15T10:37:41.115Z,1022.37
2017-11-15T10:38:41.037Z,1022.20
2017-11-15T10:39:40.965Z,1021.97
2017-11-15T10:40:40.897Z,1021.68
2017-11-15T10:41:40.829Z,1021.41
2017-11-15T10:42:40.755Z,1021.16
2017-11-15T10:43:40.680Z,1020.97
2017-11-15T10:44:40.607Z,1020.78
2017-11-15T10:45:40.538Z,1020.61
2017-11-15T10:46:40.540Z,1020.40
2017-11-15T10:47:40.402Z,1020.34
2017-11-15T10:48:40.324Z,1020.16
2017-11-15T10:49:40.255Z,1020.06
2017-11-15T10:50:40.186Z,1019.93
2017-11-15T10:51:40.116Z,1019.79
2017-11-15T10:52:40.046Z,1019.71
2017-11-15T10:53:39.975Z,1019.68
2017-11-15T10:54:39.925Z,1019.52
2017-11-15T10:55:39.831Z,1019.41
2017-11-15T10:56:39.766Z,1019.19
2017-11-15T10:57:39.689Z,1019.09
2017-11-15T10:58:39.623Z,1018.96
2017-11-15T10:59:39.544Z,1018.76
2017-11-15T11:00:39.481Z,1018.46
2017-11-15T11:01:39.403Z,1018.31
2017-11-15T11:02:39.335Z,1018.08
2017-11-15T11:03:39.264Z,1017.88
2017-11-15T11:04:39.192Z,1017.73
2017-11-15T11:05:39.125Z,1017.52
2017-11-15T11:06:39.052Z,1017.38
2017-11-15T11:07:38.981Z,1017.23
2017-11-15T11:08:38.912Z,1017.06
2017-11-15T11:09:38.836Z,1016.92
2017-11-15T11:10:38.765Z,1016.79
2017-11-15T11:11:38.691Z,1016.69
2017-11-15T11:12:38.618Z,1016.53
2017-11-15T11:13:38.547Z,1016.46
2017-11-15T11:14:38.474Z,1016.38
2017-11-15T11:15:38.406Z,1016.34
2017-11-15T11:16:38.335Z,1016.25
2017-11-15T11:17:38.259Z,1016.17
2017-11-15T11:18:38.186Z,1016.17
2017-11-15T11:19:38.127Z,1016.12
2017-11-15T11:20:38.043Z,1016.07
2017-11-15T11:21:37.973Z,1016.00
2017-11-15T11:22:37.898Z,1015.97
2017-11-15T11:23:37.825Z,1015.95
2017-11-15T11:24:37.752Z,1015.93
2017-11-15T11:25:37.682Z,1015.91
2017-11-15T11:26:37.605Z,1015.96
2017-11-15T11:27:37.533Z,1016.01
2017-11-15T11:28:37.464Z,1016.09
2017-11-15T11:29:37.386Z,1016.17
2017-11-15T11:30:37.309Z,1016.34
2017-11-15T11:31:37.235Z,1016.57
2017-11-15T11:32:37.174Z,1016.83
2017-11-15T11:33:37.087Z,1017.09
2017-11-15T11:34:37.027Z,1017.46
2017-11-15T11:35:36.937Z,1017.86
2017-11-15T11:36:36.867Z,1018.39
2017-11-15T11:37:36.787Z,1018.83
2017-11-15T11:38:36.743Z,1019.47
2017-11-15T11:39:36.649Z,1020.01
2017-11-15T11:40:36.552Z,1020.47
2017-11-15T11:41:36.478Z,1021.13
2017-11-15T11:42:36.410Z,1021.73
2017-11-15T11:43:36.324Z,1022.31
2017-11-15T11:44:36.249Z,1020.30
2017-11-15T11:45:36.165Z,1015.75
2017-11-15T11:46:36.084Z,1014.51
2017-11-15T11:47:36.006Z,1014.46
2017-11-15T11:48:35.928Z,1014.46
2017-11-15T11:49:35.851Z,1014.36
2017-11-15T11:50:35.779Z,1014.35
2017-11-15T11:51:35.697Z,1014.31
2017-11-15T11:52:35.625Z,1014.28
2017-11-15T11:53:35.531Z,1014.27
2017-11-15T11:54:35.459Z,1014.27
2017-11-15T11:55:35.371Z,1014.21
2017-11-15T11:56:35.289Z,1014.18
2017-11-15T11:57:35.211Z,1014.12
2017-11-15T11:58:35.132Z,1014.12
2017-11-15T11:59:35.051Z,1014.10
2017-11-15T12:00:34.971Z,1014.04
2017-11-15T12:01:34.892Z,1014.00
2017-11-15T12:02:34.803Z,1013.97
2017-11-15T12:03:34.721Z,1013.97
2017-11-15T12:04:34.661Z,1014.00